Portada
METAR-TAF:

METAR-TAF

Aeroports :

Memphis, Tennessee, Estats Units d'Amèrica

latitud: 35-03-40N, longitud: 089-59-06W, altitud: 101 m

Observació

L'informe es va fer fa 43 minuts, a les 18:54 UTC
Vent 5 kt del Sud
Temperatura 33°C
Humitat 49%
Pressió 1014 hPa
Visibilitat: 16.1 km
Núvols disperses a una alçada de 5500 ft
Cel ennuvolat a una alçada de 7000 ft

METAR: KMEM 151854Z 17005KT 10SM SCT055 BKN070 33/21 A2995 RMK AO2 SLP137 T03280206

Hora: 14:37 (19:37 UTC)

Pronòstic

L'informe es va fer fa 2 hores i 16 minuts, a les 17:21 UTC
Pronòstic vàlid del 15 a les 18 UTC al 16 a les 24 UTC
Vent 5 kt del Sud
Visibilitat: 10 km
Escasses núvols a una alçada de 5000 ft
A partir de les 16 a les 0100 UTC
Vent 5 kt del Sud-Est
Visibilitat: 10 km
Cel clar
A partir de les 16 a les 1500 UTC
Vent 6 kt del Sud
Visibilitat: 10 km
Núvols disperses a una alçada de 5000 ft
xàfecs en les proximitats,

TAF: KMEM 151721Z 1518/1624 17005KT P6SM FEW050 FM160100 14005KT P6SM SKC FM161500 18006KT P6SM VCSH SCT050

Observacions i pronòstics meteorològics de més de 4000 aeroports (METAR i TAF).

Les estacions disponibles són els punts grocs i vermells al mapa.

Posi el ratolí al punt desitjat per veure el nom de l'estació.

Feu clic per veure les observacions i els pronòstics meteorològics.

Per canviar el mapa: feu clic els botons verds amb una creu de color negre per apropar; al botó verd amb un guió per allunyar la imatge; o en les fletxes verdes per a mapes adjacents.


METAR-TAF: